Time;durP1;ratioP1;P1;durP2;ratioP2;P2;SDS_P1;SDS_P2;PMS_P1;PMS_P2;Temp;Humidity;BMP_temperature;BMP_pressure;BME280_temperature;BME280_humidity;BME280_pressure;Samples;Min_cycle;Max_cycle;Signal;HPM_P1;HPM_P2
2022/09/25 00:00:03;;;;;;;0.63;0.60;;;;;;;16.74;99.53;101180.16;21179122;27;20078;-74
2022/09/25 00:10:05;;;;;;;1.23;0.43;;;;;;;16.90;99.43;101208.50;21219609;27;20138;-74
2022/09/25 00:20:09;;;;;;;1.30;0.45;;;;;;;16.88;99.35;101216.72;21219236;27;20043;-74
2022/09/25 00:30:12;;;;;;;2.45;0.60;;;;;;;16.88;99.29;101210.47;21218413;27;20487;-74
2022/09/25 00:40:14;;;;;;;0.47;0.47;;;;;;;16.86;99.23;101207.91;21219035;27;20400;-74
2022/09/25 00:50:39;;;;;;;1.55;0.60;;;;;;;16.87;99.01;101215.00;21138283;27;20045;-73
2022/09/25 01:00:41;;;;;;;2.42;0.75;;;;;;;16.85;98.90;101216.97;21204696;27;20054;-74
2022/09/25 01:10:42;;;;;;;0.75;0.45;;;;;;;16.86;98.84;101223.19;21214945;27;20066;-74
2022/09/25 01:21:09;;;;;;;1.42;0.73;;;;;;;16.85;98.64;101206.22;21214025;27;20088;-74
2022/09/25 01:31:21;;;;;;;0.50;0.40;;;;;;;16.85;98.59;101214.28;21214784;27;20135;-75
2022/09/25 01:41:28;;;;;;;0.75;0.40;;;;;;;16.84;98.40;101209.88;21213180;27;20051;-74
2022/09/25 01:51:40;;;;;;;1.20;0.35;;;;;;;16.83;98.39;101216.22;21164389;27;20525;-74
2022/09/25 02:01:43;;;;;;;2.25;0.70;;;;;;;16.83;98.16;101216.22;21211803;27;20108;-73
2022/09/25 02:11:49;;;;;;;1.45;0.43;;;;;;;16.82;98.12;101193.84;21211696;27;20051;-74
2022/09/25 02:22:18;;;;;;;0.68;0.45;;;;;;;16.80;97.97;101187.75;21209167;27;20051;-74
2022/09/25 02:32:24;;;;;;;0.55;0.30;;;;;;;16.80;97.99;101200.34;21210694;27;20051;-74
2022/09/25 02:42:44;;;;;;;0.55;0.43;;;;;;;16.80;97.88;101205.72;21209960;27;20070;-73
2022/09/25 02:53:10;;;;;;;0.60;0.30;;;;;;;16.67;97.93;101187.84;21141915;27;20039;-74
2022/09/25 03:03:14;;;;;;;0.50;0.40;;;;;;;16.78;97.54;101204.97;21209178;27;20372;-74
2022/09/25 03:13:18;;;;;;;0.68;0.43;;;;;;;16.77;97.47;101200.56;21218621;27;20054;-74
2022/09/25 03:23:20;;;;;;;0.47;0.30;;;;;;;16.61;97.52;101176.75;21223889;27;20039;-74
2022/09/25 03:33:21;;;;;;;0.55;0.40;;;;;;;16.76;97.24;101212.28;21223011;27;20092;-74
2022/09/25 03:43:23;;;;;;;0.50;0.30;;;;;;;16.76;97.09;101199.72;21201985;27;20437;-74
2022/09/25 03:53:24;;;;;;;0.55;0.35;;;;;;;16.77;97.20;101197.88;21136894;27;20510;-74
2022/09/25 04:03:27;;;;;;;0.40;0.30;;;;;;;16.76;97.07;101199.72;21222613;27;20051;-74
2022/09/25 04:13:40;;;;;;;0.50;0.35;;;;;;;16.60;97.04;101188.47;21221134;27;20104;-74
2022/09/25 04:24:46;;;;;;;0.32;0.32;;;;;;;16.74;96.87;101187.34;21218904;27;20096;-74
2022/09/25 04:34:03;;;;;;;0.75;0.32;;;;;;;16.74;96.61;101195.41;21218837;27;20525;-74
2022/09/25 04:44:05;;;;;;;0.52;0.38;;;;;;;16.67;96.69;101170.88;21165864;27;20057;-73
2022/09/25 04:54:06;;;;;;;0.52;0.30;;;;;;;16.73;96.52;101177.59;21211052;27;20395;-74
2022/09/25 05:04:08;;;;;;;0.40;0.30;;;;;;;16.72;96.38;101173.19;21217585;27;20571;-74
2022/09/25 05:14:10;;;;;;;0.40;0.25;;;;;;;16.73;97.18;101170.38;20778012;27;20053;-74
2022/09/25 05:24:12;;;;;;;0.45;0.35;;;;;;;16.76;98.90;101174.66;20721610;27;20750;-75
2022/09/25 05:34:14;;;;;;;1.52;0.55;;;;;;;16.80;97.89;101189.59;20734351;27;20081;-74
2022/09/25 05:44:15;;;;;;;2.72;0.60;;;;;;;16.83;100.00;101183.97;20745415;27;20057;-75
2022/09/25 05:54:17;;;;;;;1.00;0.40;;;;;;;16.64;100.00;101169.28;20727405;27;20069;-75
2022/09/25 06:04:19;;;;;;;1.52;0.57;;;;;;;16.83;100.00;101181.28;20748527;27;20506;-76
2022/09/25 06:14:20;;;;;;;1.10;0.40;;;;;;;16.82;100.00;101187.63;20787718;27;20057;-79
2022/09/25 06:24:22;;;;;;;2.03;0.50;;;;;;;16.56;100.00;101144.84;20929316;27;20057;-75
2022/09/25 06:34:24;;;;;;;2.83;1.05;;;;;;;16.83;100.00;101192.03;20748805;27;20482;-76
2022/09/25 06:44:27;;;;;;;0.75;0.50;;;;;;;16.74;100.00;101168.53;20757275;27;20166;-76
2022/09/25 06:54:32;;;;;;;0.63;0.40;;;;;;;16.58;100.00;101150.94;20808901;27;20061;-75
2022/09/25 07:04:34;;;;;;;0.85;0.40;;;;;;;16.85;100.00;101184.69;20899615;27;20139;-76
2022/09/25 07:14:37;;;;;;;1.05;0.45;;;;;;;16.86;100.00;101183.72;20785975;27;21553;-76
2022/09/25 07:24:38;;;;;;;0.68;0.30;;;;;;;16.50;100.00;101132.72;20729832;27;20049;-75
2022/09/25 07:34:41;;;;;;;0.60;0.40;;;;;;;16.87;100.00;101193.50;20721155;27;20049;-75
2022/09/25 07:44:43;;;;;;;1.73;0.30;;;;;;;16.84;100.00;101182.13;20729129;27;20111;-75
2022/09/25 07:54:49;;;;;;;0.60;0.40;;;;;;;16.34;100.00;101084.72;20743405;27;20119;-75
2022/09/25 08:04:51;;;;;;;0.55;0.40;;;;;;;17.00;100.00;101197.91;20728226;27;20137;-76
2022/09/25 08:14:53;;;;;;;0.90;0.43;;;;;;;17.02;100.00;101193.25;20713513;27;20410;-75
2022/09/25 08:24:54;;;;;;;1.42;0.35;;;;;;;17.04;100.00;101200.25;20728909;27;20406;-75
2022/09/25 08:34:56;;;;;;;0.55;0.32;;;;;;;17.13;100.00;101200.47;20708358;27;20046;-76
2022/09/25 09:06:02;;;;;;;1.40;0.30;;;;;;;17.23;100.00;101199.63;20710104;27;20127;-74
2022/09/25 09:16:22;;;;;;;;;;;;;;;17.26;100.00;101195.81;20727629;27;20054;-74
2022/09/25 09:26:36;;;;;;;0.80;0.30;;;;;;;17.25;99.91;101192.28;20712332;27;20370;-74
2022/09/25 09:36:54;;;;;;;1.77;0.43;;;;;;;17.23;100.00;101190.66;20706185;27;20798;-74
2022/09/25 09:47:21;;;;;;;1.15;0.40;;;;;;;17.20;100.00;101182.84;20724136;27;20502;-74
2022/09/25 09:57:33;;;;;;;1.23;0.32;;;;;;;17.05;100.00;101163.44;20699124;27;20046;-75
2022/09/25 10:07:36;;;;;;;0.30;0.30;;;;;;;17.22;100.00;101170.97;20699867;27;20045;-74
2022/09/25 10:17:38;;;;;;;0.70;0.30;;;;;;;17.11;99.84;101154.84;20722442;27;20056;-73
2022/09/25 10:27:45;;;;;;;1.58;0.30;;;;;;;17.28;99.22;101187.63;20753732;27;20041;-73
2022/09/25 10:37:55;;;;;;;1.67;0.40;;;;;;;17.32;98.30;101189.06;20756585;27;20084;-73
2022/09/25 10:58:34;;;;;;;1.85;0.45;;;;;;;17.38;97.23;101180.50;20687236;28;20505;-74
2022/09/25 11:08:38;;;;;;;0.60;0.22;;;;;;;17.39;97.04;101171.44;20739405;27;20533;-74
2022/09/25 11:18:44;;;;;;;3.53;0.32;;;;;;;17.39;97.10;101172.28;20742135;27;20446;-73
2022/09/25 11:28:51;;;;;;;0.30;0.20;;;;;;;17.35;96.96;101148.47;20764166;27;20045;-74
2022/09/25 11:49:19;;;;;;;1.45;0.32;;;;;;;17.42;97.18;101138.00;20708117;27;20770;-74
2022/09/25 11:59:40;;;;;;;0.75;0.30;;;;;;;17.41;97.16;101131.78;20697403;27;20494;-74
2022/09/25 12:09:44;;;;;;;0.55;0.30;;;;;;;17.43;96.97;101123.56;20719477;27;20049;-75
2022/09/25 12:19:50;;;;;;;1.80;0.50;;;;;;;17.44;97.18;101107.31;20709621;28;20405;-74
2022/09/25 12:30:14;;;;;;;1.80;0.25;;;;;;;16.84;97.12;101002.81;20714556;27;20136;-74
2022/09/25 12:40:32;;;;;;;1.20;0.28;;;;;;;17.49;97.12;101093.47;20714292;27;20446;-74
2022/09/25 12:50:42;;;;;;;1.10;0.30;;;;;;;17.46;97.10;101064.13;20706887;27;20067;-74
2022/09/25 13:00:45;;;;;;;0.68;0.30;;;;;;;17.49;97.19;101075.47;20729650;27;20057;-73
2022/09/25 13:11:11;;;;;;;1.27;0.30;;;;;;;17.49;97.13;101072.78;20772818;27;20049;-74
2022/09/25 13:21:25;;;;;;;0.70;0.30;;;;;;;17.48;97.32;101071.09;20758110;27;20056;-74
2022/09/25 13:31:32;;;;;;;0.47;0.22;;;;;;;17.48;97.28;101064.84;20709239;27;20070;-75
2022/09/25 13:41:33;;;;;;;0.85;0.30;;;;;;;17.48;97.39;101054.94;20745962;27;20391;-74
2022/09/25 13:51:35;;;;;;;2.25;0.30;;;;;;;17.45;97.21;101041.75;20749350;27;20059;-75
2022/09/25 14:01:49;;;;;;;0.52;0.25;;;;;;;17.43;97.35;101040.16;20754109;27;20072;-74
2022/09/25 14:12:06;;;;;;;1.58;0.38;;;;;;;17.47;97.30;101034.38;20728455;27;20052;-75
2022/09/25 14:22:17;;;;;;;1.30;0.32;;;;;;;17.38;97.12;101006.41;20732524;27;20182;-74
2022/09/25 14:32:22;;;;;;;1.65;0.30;;;;;;;17.50;97.22;101009.91;20719941;27;20054;-75
2022/09/25 14:42:52;;;;;;;0.70;0.30;;;;;;;17.49;97.41;101005.50;20716214;27;20182;-78
2022/09/25 14:52:57;;;;;;;0.47;0.22;;;;;;;17.47;97.67;100995.88;20707737;27;21074;-74
2022/09/25 15:02:59;;;;;;;1.90;0.70;;;;;;;17.46;97.87;100991.47;20699530;28;20110;-74
2022/09/25 15:13:16;;;;;;;0.20;0.20;;;;;;;17.45;97.98;100971.75;20727773;27;20134;-74
2022/09/25 15:23:20;;;;;;;0.85;0.32;;;;;;;17.27;97.66;100939.22;20733555;27;20144;-74
2022/09/25 15:33:25;;;;;;;0.32;0.10;;;;;;;17.43;97.33;100965.66;20723859;27;20053;-74
2022/09/25 15:43:28;;;;;;;0.70;0.20;;;;;;;17.40;97.18;100960.53;20731669;27;20387;-74
2022/09/25 15:53:34;;;;;;;0.77;0.28;;;;;;;17.40;97.33;100957.84;20704433;27;20053;-73
2022/09/25 16:14:20;;;;;;;1.13;0.30;;;;;;;17.36;96.69;100954.56;20728708;27;20052;-74
2022/09/25 16:24:24;;;;;;;0.28;0.20;;;;;;;17.35;96.70;100949.31;20726035;27;20091;-74
2022/09/25 16:34:29;;;;;;;0.43;0.20;;;;;;;16.72;96.96;100851.44;20735052;27;20106;-74
2022/09/25 16:44:31;;;;;;;0.50;0.30;;;;;;;17.31;97.02;100937.94;20706371;27;20085;-74
2022/09/25 16:54:36;;;;;;;0.40;0.25;;;;;;;17.29;97.36;100945.31;20700525;27;20058;-74
2022/09/25 17:04:37;;;;;;;0.33;0.20;;;;;;;17.19;97.42;100917.50;20691817;27;20064;-74
2022/09/25 17:14:39;;;;;;;0.30;0.17;;;;;;;17.24;97.45;100917.94;20705999;27;22217;-74
2022/09/25 17:24:40;;;;;;;1.10;0.43;;;;;;;17.22;97.50;100899.22;20694959;27;20057;-74
2022/09/25 17:34:44;;;;;;;0.35;0.20;;;;;;;17.21;97.45;100884.06;20695632;27;20539;-75
2022/09/25 17:44:46;;;;;;;0.57;0.30;;;;;;;17.21;97.46;100888.63;20740139;27;20054;-74
2022/09/25 17:54:48;;;;;;;0.60;0.20;;;;;;;17.19;97.62;100888.72;20747580;27;20504;-74
2022/09/25 18:04:49;;;;;;;0.88;0.30;;;;;;;16.93;97.38;100845.22;20711815;27;20073;-74
2022/09/25 18:14:51;;;;;;;0.80;0.22;;;;;;;17.19;97.47;100912.09;20758676;27;20061;-74
2022/09/25 18:24:56;;;;;;;0.17;0.17;;;;;;;17.18;97.62;100883.50;20705377;27;20050;-74
2022/09/25 18:34:58;;;;;;;0.22;0.20;;;;;;;17.11;97.46;100861.66;20737528;27;20172;-74
2022/09/25 18:44:59;;;;;;;0.25;0.22;;;;;;;17.16;97.55;100859.41;21042901;27;20067;-74
2022/09/25 18:55:01;;;;;;;0.38;0.30;;;;;;;17.15;97.59;100841.56;21228032;27;20441;-74
2022/09/25 19:05:04;;;;;;;1.08;0.43;;;;;;;17.14;97.51;100829.09;21227060;27;20047;-74
2022/09/25 19:15:06;;;;;;;0.30;0.30;;;;;;;17.10;97.56;100824.97;21224825;27;20051;-75
2022/09/25 19:25:09;;;;;;;0.30;0.20;;;;;;;17.13;97.41;100822.00;21158111;27;20530;-74
2022/09/25 19:35:11;;;;;;;0.40;0.28;;;;;;;17.13;97.60;100807.72;21223372;27;20047;-74
2022/09/25 19:45:12;;;;;;;0.52;0.40;;;;;;;17.13;97.35;100794.28;21222316;27;20057;-75
2022/09/25 19:55:14;;;;;;;0.40;0.30;;;;;;;17.13;97.21;100783.53;21222897;27;20054;-74
2022/09/25 20:05:16;;;;;;;0.55;0.40;;;;;;;17.12;97.14;100771.91;21204275;27;20039;-75
2022/09/25 20:15:17;;;;;;;0.45;0.28;;;;;;;16.91;97.15;100735.13;21221607;27;20043;-76
2022/09/25 20:25:19;;;;;;;0.68;0.50;;;;;;;16.83;97.16;100713.44;21133351;27;20081;-74
2022/09/25 20:35:21;;;;;;;0.75;0.30;;;;;;;17.09;97.16;100756.03;21220777;27;20051;-74
2022/09/25 20:45:22;;;;;;;0.85;0.40;;;;;;;17.09;97.17;100723.75;21219119;27;20047;-74
2022/09/25 20:55:24;;;;;;;0.73;0.40;;;;;;;17.05;96.97;100714.25;21216715;27;20511;-74
2022/09/25 21:05:25;;;;;;;0.30;0.30;;;;;;;17.04;96.94;100715.25;21197884;27;20050;-74
2022/09/25 21:15:28;;;;;;;0.30;0.30;;;;;;;17.08;96.88;100705.91;21215777;27;20061;-74
2022/09/25 21:25:29;;;;;;;1.35;0.30;;;;;;;17.08;96.92;100703.22;21159898;27;20108;-74
2022/09/25 21:35:31;;;;;;;0.30;0.25;;;;;;;17.07;96.86;100697.00;21215633;27;20043;-74
2022/09/25 21:45:33;;;;;;;0.75;0.30;;;;;;;17.07;96.96;100693.44;21213588;27;20491;-74
2022/09/25 21:55:34;;;;;;;1.50;0.30;;;;;;;17.06;96.91;100675.59;21211781;27;20045;-74
2022/09/25 22:05:36;;;;;;;0.63;0.38;;;;;;;17.05;96.86;100653.25;21212186;27;20129;-75
2022/09/25 22:15:37;;;;;;;0.82;0.40;;;;;;;17.05;96.87;100647.88;21212239;27;20051;-78
2022/09/25 22:25:39;;;;;;;0.73;0.30;;;;;;;17.05;96.80;100636.25;21134610;27;20104;-74
2022/09/25 22:35:40;;;;;;;0.50;0.38;;;;;;;17.05;96.62;100622.81;21212646;27;20035;-74
2022/09/25 22:45:49;;;;;;;0.55;0.30;;;;;;;17.05;96.74;100604.84;21212629;27;20495;-74
2022/09/25 22:55:51;;;;;;;0.40;0.20;;;;;;;17.05;96.76;100582.47;21211454;27;20154;-74
2022/09/25 23:05:53;;;;;;;0.30;0.30;;;;;;;16.95;96.63;100544.75;21211863;27;20092;-74
2022/09/25 23:15:54;;;;;;;0.52;0.32;;;;;;;16.97;96.63;100521.25;21207729;27;20057;-74
2022/09/25 23:26:02;;;;;;;0.47;0.30;;;;;;;17.04;96.58;100513.53;21168906;27;20399;-74
2022/09/25 23:36:16;;;;;;;0.40;0.30;;;;;;;17.03;96.60;100501.06;21124876;27;20048;-74
2022/09/25 23:46:19;;;;;;;0.32;0.30;;;;;;;17.02;96.43;100491.31;20874469;27;20056;-74
2022/09/25 23:56:24;;;;;;;0.65;0.43;;;;;;;17.03;96.30;100471.50;20874470;27;20124;-74
